sensor_id;sensor_type;location;lat;lon;timestamp;temperature;humidity
20418;DHT22;10368;51.436;6.774;2024-01-27T00:01:59;4.30;99.90
20418;DHT22;10368;51.436;6.774;2024-01-27T00:04:26;4.40;99.90
20418;DHT22;10368;51.436;6.774;2024-01-27T00:06:53;4.40;99.90
20418;DHT22;10368;51.436;6.774;2024-01-27T00:09:20;4.40;99.90
20418;DHT22;10368;51.436;6.774;2024-01-27T00:11:47;4.30;99.90
20418;DHT22;10368;51.436;6.774;2024-01-27T00:14:14;4.30;99.90
20418;DHT22;10368;51.436;6.774;2024-01-27T00:16:41;4.30;99.90
20418;DHT22;10368;51.436;6.774;2024-01-27T00:19:08;4.30;99.90
20418;DHT22;10368;51.436;6.774;2024-01-27T00:21:35;4.20;99.90
20418;DHT22;10368;51.436;6.774;2024-01-27T00:24:02;4.20;99.90
20418;DHT22;10368;51.436;6.774;2024-01-27T00:26:30;4.30;99.90
20418;DHT22;10368;51.436;6.774;2024-01-27T00:28:57;4.30;99.90
20418;DHT22;10368;51.436;6.774;2024-01-27T00:31:23;4.30;99.90
20418;DHT22;10368;51.436;6.774;2024-01-27T00:33:50;4.30;99.90
20418;DHT22;10368;51.436;6.774;2024-01-27T00:36:17;4.20;99.90
20418;DHT22;10368;51.436;6.774;2024-01-27T00:38:45;4.20;99.90
20418;DHT22;10368;51.436;6.774;2024-01-27T00:41:18;4.20;99.90
20418;DHT22;10368;51.436;6.774;2024-01-27T00:43:45;4.20;99.90
20418;DHT22;10368;51.436;6.774;2024-01-27T00:46:12;4.20;99.90
20418;DHT22;10368;51.436;6.774;2024-01-27T00:48:39;4.20;99.90
20418;DHT22;10368;51.436;6.774;2024-01-27T00:51:06;4.20;99.90
20418;DHT22;10368;51.436;6.774;2024-01-27T00:53:33;4.20;99.90
20418;DHT22;10368;51.436;6.774;2024-01-27T00:56:00;4.20;99.90
20418;DHT22;10368;51.436;6.774;2024-01-27T00:58:28;4.10;99.90
20418;DHT22;10368;51.436;6.774;2024-01-27T01:00:55;4.20;99.90
20418;DHT22;10368;51.436;6.774;2024-01-27T01:03:21;4.20;99.90
20418;DHT22;10368;51.436;6.774;2024-01-27T01:05:48;4.10;99.90
20418;DHT22;10368;51.436;6.774;2024-01-27T01:08:16;4.20;99.90
20418;DHT22;10368;51.436;6.774;2024-01-27T01:10:43;4.20;99.90
20418;DHT22;10368;51.436;6.774;2024-01-27T01:13:10;4.20;99.90
20418;DHT22;10368;51.436;6.774;2024-01-27T01:15:37;4.10;99.90
20418;DHT22;10368;51.436;6.774;2024-01-27T01:18:04;4.10;99.90
20418;DHT22;10368;51.436;6.774;2024-01-27T01:20:31;4.00;99.90
20418;DHT22;10368;51.436;6.774;2024-01-27T01:22:59;4.00;99.90
20418;DHT22;10368;51.436;6.774;2024-01-27T01:25:26;4.00;99.90
20418;DHT22;10368;51.436;6.774;2024-01-27T01:27:53;4.10;99.90
20418;DHT22;10368;51.436;6.774;2024-01-27T01:30:20;4.10;99.90
20418;DHT22;10368;51.436;6.774;2024-01-27T01:32:47;4.10;99.90
20418;DHT22;10368;51.436;6.774;2024-01-27T01:35:14;4.10;99.90
20418;DHT22;10368;51.436;6.774;2024-01-27T01:37:41;4.00;99.90
20418;DHT22;10368;51.436;6.774;2024-01-27T01:40:08;4.00;99.90
20418;DHT22;10368;51.436;6.774;2024-01-27T01:42:36;4.00;99.90
20418;DHT22;10368;51.436;6.774;2024-01-27T01:45:03;4.00;99.90
20418;DHT22;10368;51.436;6.774;2024-01-27T01:47:30;4.00;99.90
20418;DHT22;10368;51.436;6.774;2024-01-27T01:49:58;4.00;99.90
20418;DHT22;10368;51.436;6.774;2024-01-27T01:52:25;3.90;99.90
20418;DHT22;10368;51.436;6.774;2024-01-27T01:54:52;4.30;99.90
20418;DHT22;10368;51.436;6.774;2024-01-27T01:57:19;3.90;99.90
20418;DHT22;10368;51.436;6.774;2024-01-27T01:59:46;4.00;99.90
20418;DHT22;10368;51.436;6.774;2024-01-27T02:02:14;3.90;99.90
20418;DHT22;10368;51.436;6.774;2024-01-27T02:04:45;3.90;99.90
20418;DHT22;10368;51.436;6.774;2024-01-27T02:07:14;3.70;99.90
20418;DHT22;10368;51.436;6.774;2024-01-27T02:09:42;3.80;99.90
20418;DHT22;10368;51.436;6.774;2024-01-27T02:12:09;3.80;99.90
20418;DHT22;10368;51.436;6.774;2024-01-27T02:14:36;3.90;99.90
20418;DHT22;10368;51.436;6.774;2024-01-27T02:17:03;3.70;99.90
20418;DHT22;10368;51.436;6.774;2024-01-27T02:19:31;3.60;99.90
20418;DHT22;10368;51.436;6.774;2024-01-27T02:21:58;3.70;99.90
20418;DHT22;10368;51.436;6.774;2024-01-27T02:24:25;3.70;99.90
20418;DHT22;10368;51.436;6.774;2024-01-27T02:26:54;3.70;99.90
20418;DHT22;10368;51.436;6.774;2024-01-27T02:29:21;3.70;99.90
20418;DHT22;10368;51.436;6.774;2024-01-27T02:31:48;3.70;99.90
20418;DHT22;10368;51.436;6.774;2024-01-27T02:34:15;3.80;99.90
20418;DHT22;10368;51.436;6.774;2024-01-27T02:36:42;3.80;99.90
20418;DHT22;10368;51.436;6.774;2024-01-27T02:39:10;3.70;99.90
20418;DHT22;10368;51.436;6.774;2024-01-27T02:41:37;3.70;99.90
20418;DHT22;10368;51.436;6.774;2024-01-27T02:44:06;3.70;99.90
20418;DHT22;10368;51.436;6.774;2024-01-27T02:46:32;3.60;99.90
20418;DHT22;10368;51.436;6.774;2024-01-27T02:48:59;3.60;99.90
20418;DHT22;10368;51.436;6.774;2024-01-27T02:51:26;3.60;99.90
20418;DHT22;10368;51.436;6.774;2024-01-27T02:53:53;3.60;99.90
20418;DHT22;10368;51.436;6.774;2024-01-27T02:56:20;3.60;99.90
20418;DHT22;10368;51.436;6.774;2024-01-27T02:58:47;3.60;99.90
20418;DHT22;10368;51.436;6.774;2024-01-27T03:01:14;3.40;99.90
20418;DHT22;10368;51.436;6.774;2024-01-27T03:03:41;3.40;99.90
20418;DHT22;10368;51.436;6.774;2024-01-27T03:06:08;3.30;99.90
20418;DHT22;10368;51.436;6.774;2024-01-27T03:08:35;3.20;99.90
20418;DHT22;10368;51.436;6.774;2024-01-27T03:11:02;3.20;99.90
20418;DHT22;10368;51.436;6.774;2024-01-27T03:13:29;3.20;99.90
20418;DHT22;10368;51.436;6.774;2024-01-27T03:15:56;3.30;99.90
20418;DHT22;10368;51.436;6.774;2024-01-27T03:18:23;3.10;99.90
20418;DHT22;10368;51.436;6.774;2024-01-27T03:20:52;3.20;99.90
20418;DHT22;10368;51.436;6.774;2024-01-27T03:23:19;3.10;99.90
20418;DHT22;10368;51.436;6.774;2024-01-27T03:25:46;3.20;99.90
20418;DHT22;10368;51.436;6.774;2024-01-27T03:28:12;3.10;99.90
20418;DHT22;10368;51.436;6.774;2024-01-27T03:30:39;3.20;99.90
20418;DHT22;10368;51.436;6.774;2024-01-27T03:33:06;3.00;99.90
20418;DHT22;10368;51.436;6.774;2024-01-27T03:35:37;3.10;99.90
20418;DHT22;10368;51.436;6.774;2024-01-27T03:38:05;3.10;99.90
20418;DHT22;10368;51.436;6.774;2024-01-27T03:40:32;3.20;99.90
20418;DHT22;10368;51.436;6.774;2024-01-27T03:42:59;3.10;99.90
20418;DHT22;10368;51.436;6.774;2024-01-27T03:45:26;3.10;99.90
20418;DHT22;10368;51.436;6.774;2024-01-27T03:47:53;3.20;99.90
20418;DHT22;10368;51.436;6.774;2024-01-27T03:50:20;3.10;99.90
20418;DHT22;10368;51.436;6.774;2024-01-27T03:52:47;3.00;99.90
20418;DHT22;10368;51.436;6.774;2024-01-27T03:55:14;2.90;99.90
20418;DHT22;10368;51.436;6.774;2024-01-27T03:57:41;2.90;99.90
20418;DHT22;10368;51.436;6.774;2024-01-27T04:00:08;2.80;99.90
20418;DHT22;10368;51.436;6.774;2024-01-27T04:02:37;2.80;99.90
20418;DHT22;10368;51.436;6.774;2024-01-27T04:05:05;2.80;99.90
20418;DHT22;10368;51.436;6.774;2024-01-27T04:07:32;2.70;99.90
20418;DHT22;10368;51.436;6.774;2024-01-27T04:09:59;2.90;99.90
20418;DHT22;10368;51.436;6.774;2024-01-27T04:12:26;2.60;99.90
20418;DHT22;10368;51.436;6.774;2024-01-27T04:14:53;2.70;99.90
20418;DHT22;10368;51.436;6.774;2024-01-27T04:17:19;2.60;99.90
20418;DHT22;10368;51.436;6.774;2024-01-27T04:19:46;2.60;99.90
20418;DHT22;10368;51.436;6.774;2024-01-27T04:22:13;2.70;99.90
20418;DHT22;10368;51.436;6.774;2024-01-27T04:24:41;2.60;99.90
20418;DHT22;10368;51.436;6.774;2024-01-27T04:27:08;2.80;99.90
20418;DHT22;10368;51.436;6.774;2024-01-27T04:29:36;2.80;99.90
20418;DHT22;10368;51.436;6.774;2024-01-27T04:32:03;2.80;99.90
20418;DHT22;10368;51.436;6.774;2024-01-27T04:34:32;2.70;99.90
20418;DHT22;10368;51.436;6.774;2024-01-27T04:36:59;2.60;99.90
20418;DHT22;10368;51.436;6.774;2024-01-27T04:39:25;2.60;99.90
20418;DHT22;10368;51.436;6.774;2024-01-27T04:41:52;2.70;99.90
20418;DHT22;10368;51.436;6.774;2024-01-27T04:44:19;2.70;99.90
20418;DHT22;10368;51.436;6.774;2024-01-27T04:46:47;2.50;99.90
20418;DHT22;10368;51.436;6.774;2024-01-27T04:49:15;2.50;99.90
20418;DHT22;10368;51.436;6.774;2024-01-27T04:51:42;2.50;99.90
20418;DHT22;10368;51.436;6.774;2024-01-27T04:54:10;2.40;99.90
20418;DHT22;10368;51.436;6.774;2024-01-27T04:56:37;2.50;99.90
20418;DHT22;10368;51.436;6.774;2024-01-27T04:59:04;2.40;99.90
20418;DHT22;10368;51.436;6.774;2024-01-27T05:01:32;2.40;99.90
20418;DHT22;10368;51.436;6.774;2024-01-27T05:03:59;2.10;99.90
20418;DHT22;10368;51.436;6.774;2024-01-27T05:06:26;2.40;99.90
20418;DHT22;10368;51.436;6.774;2024-01-27T05:08:53;2.50;99.90
20418;DHT22;10368;51.436;6.774;2024-01-27T05:11:30;2.50;99.90
20418;DHT22;10368;51.436;6.774;2024-01-27T05:13:59;2.50;99.90
20418;DHT22;10368;51.436;6.774;2024-01-27T05:16:27;2.40;99.90
20418;DHT22;10368;51.436;6.774;2024-01-27T05:18:54;2.40;99.90
20418;DHT22;10368;51.436;6.774;2024-01-27T05:21:21;2.30;99.90
20418;DHT22;10368;51.436;6.774;2024-01-27T05:23:48;2.10;99.90
20418;DHT22;10368;51.436;6.774;2024-01-27T05:26:15;2.20;99.90
20418;DHT22;10368;51.436;6.774;2024-01-27T05:28:41;2.20;99.90
20418;DHT22;10368;51.436;6.774;2024-01-27T05:31:08;2.20;99.90
20418;DHT22;10368;51.436;6.774;2024-01-27T05:33:36;2.30;99.90
20418;DHT22;10368;51.436;6.774;2024-01-27T05:36:03;2.20;99.90
20418;DHT22;10368;51.436;6.774;2024-01-27T05:38:30;2.20;99.90
20418;DHT22;10368;51.436;6.774;2024-01-27T05:41:02;2.30;99.90
20418;DHT22;10368;51.436;6.774;2024-01-27T05:43:29;2.30;99.90
20418;DHT22;10368;51.436;6.774;2024-01-27T05:45:56;2.10;99.90
20418;DHT22;10368;51.436;6.774;2024-01-27T05:48:22;2.20;99.90
20418;DHT22;10368;51.436;6.774;2024-01-27T05:50:56;2.20;99.90
20418;DHT22;10368;51.436;6.774;2024-01-27T05:53:24;2.10;99.90
20418;DHT22;10368;51.436;6.774;2024-01-27T05:55:51;2.00;99.90
20418;DHT22;10368;51.436;6.774;2024-01-27T05:58:19;2.10;99.90
20418;DHT22;10368;51.436;6.774;2024-01-27T06:00:49;2.10;99.90
20418;DHT22;10368;51.436;6.774;2024-01-27T06:03:16;2.00;99.90
20418;DHT22;10368;51.436;6.774;2024-01-27T06:05:44;2.00;99.90
20418;DHT22;10368;51.436;6.774;2024-01-27T06:08:11;2.20;99.90
20418;DHT22;10368;51.436;6.774;2024-01-27T06:10:38;1.90;99.90
20418;DHT22;10368;51.436;6.774;2024-01-27T06:13:05;2.10;99.90
20418;DHT22;10368;51.436;6.774;2024-01-27T06:15:32;2.20;99.90
20418;DHT22;10368;51.436;6.774;2024-01-27T06:17:59;2.20;99.90
20418;DHT22;10368;51.436;6.774;2024-01-27T06:20:26;2.20;99.90
20418;DHT22;10368;51.436;6.774;2024-01-27T06:22:53;2.10;99.90
20418;DHT22;10368;51.436;6.774;2024-01-27T06:25:21;2.30;99.90
20418;DHT22;10368;51.436;6.774;2024-01-27T06:27:48;2.20;99.90
20418;DHT22;10368;51.436;6.774;2024-01-27T06:30:15;2.20;99.90
20418;DHT22;10368;51.436;6.774;2024-01-27T06:32:43;1.90;99.90
20418;DHT22;10368;51.436;6.774;2024-01-27T06:35:10;2.00;99.90
20418;DHT22;10368;51.436;6.774;2024-01-27T06:37:37;1.90;99.90
20418;DHT22;10368;51.436;6.774;2024-01-27T06:40:04;2.00;99.90
20418;DHT22;10368;51.436;6.774;2024-01-27T06:42:31;2.10;99.90
20418;DHT22;10368;51.436;6.774;2024-01-27T06:44:59;2.10;99.90
20418;DHT22;10368;51.436;6.774;2024-01-27T06:47:26;2.20;99.90
20418;DHT22;10368;51.436;6.774;2024-01-27T06:49:53;2.00;99.90
20418;DHT22;10368;51.436;6.774;2024-01-27T06:52:20;2.00;99.90
20418;DHT22;10368;51.436;6.774;2024-01-27T06:54:46;2.00;99.90
20418;DHT22;10368;51.436;6.774;2024-01-27T06:57:20;2.20;99.90
20418;DHT22;10368;51.436;6.774;2024-01-27T06:59:49;1.90;99.90
20418;DHT22;10368;51.436;6.774;2024-01-27T07:02:23;1.90;99.90
20418;DHT22;10368;51.436;6.774;2024-01-27T07:04:50;1.90;99.90
20418;DHT22;10368;51.436;6.774;2024-01-27T07:07:18;1.90;99.90
20418;DHT22;10368;51.436;6.774;2024-01-27T07:09:47;1.80;99.90
20418;DHT22;10368;51.436;6.774;2024-01-27T07:12:14;2.10;99.90
20418;DHT22;10368;51.436;6.774;2024-01-27T07:14:41;2.00;99.90
20418;DHT22;10368;51.436;6.774;2024-01-27T07:17:08;2.20;99.90
20418;DHT22;10368;51.436;6.774;2024-01-27T07:19:35;2.20;99.90
20418;DHT22;10368;51.436;6.774;2024-01-27T07:22:02;2.10;99.90
20418;DHT22;10368;51.436;6.774;2024-01-27T07:24:30;2.10;99.90
20418;DHT22;10368;51.436;6.774;2024-01-27T07:27:00;1.90;99.90
20418;DHT22;10368;51.436;6.774;2024-01-27T07:29:27;2.00;99.90
20418;DHT22;10368;51.436;6.774;2024-01-27T07:31:54;1.80;99.90
20418;DHT22;10368;51.436;6.774;2024-01-27T07:34:22;1.80;99.90
20418;DHT22;10368;51.436;6.774;2024-01-27T07:36:49;1.80;99.90
20418;DHT22;10368;51.436;6.774;2024-01-27T07:39:16;1.90;99.90
20418;DHT22;10368;51.436;6.774;2024-01-27T07:41:43;1.90;99.90
20418;DHT22;10368;51.436;6.774;2024-01-27T07:44:11;2.00;99.90
20418;DHT22;10368;51.436;6.774;2024-01-27T07:46:38;1.90;99.90
20418;DHT22;10368;51.436;6.774;2024-01-27T07:49:06;2.00;99.90
20418;DHT22;10368;51.436;6.774;2024-01-27T07:51:34;1.90;99.90
20418;DHT22;10368;51.436;6.774;2024-01-27T07:54:01;2.00;99.90
20418;DHT22;10368;51.436;6.774;2024-01-27T07:56:28;1.90;99.90
20418;DHT22;10368;51.436;6.774;2024-01-27T07:58:55;2.00;99.90
20418;DHT22;10368;51.436;6.774;2024-01-27T08:01:22;1.80;99.90
20418;DHT22;10368;51.436;6.774;2024-01-27T08:03:49;1.80;99.90
20418;DHT22;10368;51.436;6.774;2024-01-27T08:06:18;1.80;99.90
20418;DHT22;10368;51.436;6.774;2024-01-27T08:08:48;1.90;99.90
20418;DHT22;10368;51.436;6.774;2024-01-27T08:11:17;1.90;99.90
20418;DHT22;10368;51.436;6.774;2024-01-27T08:13:44;2.00;99.90
20418;DHT22;10368;51.436;6.774;2024-01-27T08:16:11;2.00;99.90
20418;DHT22;10368;51.436;6.774;2024-01-27T08:18:42;1.90;99.90
20418;DHT22;10368;51.436;6.774;2024-01-27T08:21:11;1.90;99.90
20418;DHT22;10368;51.436;6.774;2024-01-27T08:23:41;2.00;99.90
20418;DHT22;10368;51.436;6.774;2024-01-27T08:26:08;2.00;99.90
20418;DHT22;10368;51.436;6.774;2024-01-27T08:28:35;2.00;99.90
20418;DHT22;10368;51.436;6.774;2024-01-27T08:31:02;2.10;99.90
20418;DHT22;10368;51.436;6.774;2024-01-27T08:33:29;2.10;99.90
20418;DHT22;10368;51.436;6.774;2024-01-27T08:35:56;2.20;99.90
20418;DHT22;10368;51.436;6.774;2024-01-27T08:38:23;2.20;99.90
20418;DHT22;10368;51.436;6.774;2024-01-27T08:40:50;2.40;99.90
20418;DHT22;10368;51.436;6.774;2024-01-27T08:43:17;2.30;99.90
20418;DHT22;10368;51.436;6.774;2024-01-27T08:45:44;2.30;99.90
20418;DHT22;10368;51.436;6.774;2024-01-27T08:48:11;2.30;99.90
20418;DHT22;10368;51.436;6.774;2024-01-27T08:50:39;2.50;99.90
20418;DHT22;10368;51.436;6.774;2024-01-27T08:53:06;2.50;99.90
20418;DHT22;10368;51.436;6.774;2024-01-27T08:55:33;2.60;99.90
20418;DHT22;10368;51.436;6.774;2024-01-27T08:58:00;2.60;99.90
20418;DHT22;10368;51.436;6.774;2024-01-27T09:00:27;2.70;99.90
20418;DHT22;10368;51.436;6.774;2024-01-27T09:02:55;2.70;99.90
20418;DHT22;10368;51.436;6.774;2024-01-27T09:05:22;2.80;99.90
20418;DHT22;10368;51.436;6.774;2024-01-27T09:07:49;2.70;99.90
20418;DHT22;10368;51.436;6.774;2024-01-27T09:10:16;2.80;99.90
20418;DHT22;10368;51.436;6.774;2024-01-27T09:12:42;2.90;99.90
20418;DHT22;10368;51.436;6.774;2024-01-27T09:15:10;3.00;99.90
20418;DHT22;10368;51.436;6.774;2024-01-27T09:17:37;3.00;99.90
20418;DHT22;10368;51.436;6.774;2024-01-27T09:20:05;3.10;99.90
20418;DHT22;10368;51.436;6.774;2024-01-27T09:22:33;3.10;99.90
20418;DHT22;10368;51.436;6.774;2024-01-27T09:24:59;3.10;99.90
20418;DHT22;10368;51.436;6.774;2024-01-27T09:27:26;3.20;99.90
20418;DHT22;10368;51.436;6.774;2024-01-27T09:29:53;3.30;99.90
20418;DHT22;10368;51.436;6.774;2024-01-27T09:32:20;3.30;99.90
20418;DHT22;10368;51.436;6.774;2024-01-27T09:34:47;3.30;99.90
20418;DHT22;10368;51.436;6.774;2024-01-27T09:37:15;3.40;99.90
20418;DHT22;10368;51.436;6.774;2024-01-27T09:39:42;3.40;99.90
20418;DHT22;10368;51.436;6.774;2024-01-27T09:42:12;3.50;99.90
20418;DHT22;10368;51.436;6.774;2024-01-27T09:44:42;3.50;99.90
20418;DHT22;10368;51.436;6.774;2024-01-27T09:47:11;3.60;99.90
20418;DHT22;10368;51.436;6.774;2024-01-27T09:49:42;3.60;99.90
20418;DHT22;10368;51.436;6.774;2024-01-27T09:52:09;3.70;99.90
20418;DHT22;10368;51.436;6.774;2024-01-27T09:54:36;3.70;99.90
20418;DHT22;10368;51.436;6.774;2024-01-27T09:57:04;3.80;99.90
20418;DHT22;10368;51.436;6.774;2024-01-27T09:59:33;3.90;99.90
20418;DHT22;10368;51.436;6.774;2024-01-27T10:02:00;3.90;99.90
20418;DHT22;10368;51.436;6.774;2024-01-27T10:04:29;4.10;99.90
20418;DHT22;10368;51.436;6.774;2024-01-27T10:06:58;4.10;99.90
20418;DHT22;10368;51.436;6.774;2024-01-27T10:09:25;4.30;99.90
20418;DHT22;10368;51.436;6.774;2024-01-27T10:11:54;4.30;99.90
20418;DHT22;10368;51.436;6.774;2024-01-27T10:14:22;4.50;99.90
20418;DHT22;10368;51.436;6.774;2024-01-27T10:16:49;4.40;99.90
20418;DHT22;10368;51.436;6.774;2024-01-27T10:19:18;4.50;99.90
20418;DHT22;10368;51.436;6.774;2024-01-27T10:21:46;4.50;99.90
20418;DHT22;10368;51.436;6.774;2024-01-27T10:24:14;4.60;99.90
20418;DHT22;10368;51.436;6.774;2024-01-27T10:26:41;4.50;99.90
20418;DHT22;10368;51.436;6.774;2024-01-27T10:29:08;4.60;99.90
20418;DHT22;10368;51.436;6.774;2024-01-27T10:31:36;4.70;99.90
20418;DHT22;10368;51.436;6.774;2024-01-27T10:34:03;4.70;99.90
20418;DHT22;10368;51.436;6.774;2024-01-27T10:36:40;4.80;99.90
20418;DHT22;10368;51.436;6.774;2024-01-27T10:39:18;4.90;99.90
20418;DHT22;10368;51.436;6.774;2024-01-27T10:41:48;5.00;99.90
20418;DHT22;10368;51.436;6.774;2024-01-27T10:44:17;5.00;99.90
20418;DHT22;10368;51.436;6.774;2024-01-27T10:46:46;5.10;99.90
20418;DHT22;10368;51.436;6.774;2024-01-27T10:49:15;5.20;99.90
20418;DHT22;10368;51.436;6.774;2024-01-27T10:51:53;5.30;99.90
20418;DHT22;10368;51.436;6.774;2024-01-27T10:54:24;5.30;99.90
20418;DHT22;10368;51.436;6.774;2024-01-27T10:56:57;5.50;99.90
20418;DHT22;10368;51.436;6.774;2024-01-27T10:59:27;5.50;99.90
20418;DHT22;10368;51.436;6.774;2024-01-27T11:01:56;5.50;99.90
20418;DHT22;10368;51.436;6.774;2024-01-27T11:04:23;5.50;99.90
20418;DHT22;10368;51.436;6.774;2024-01-27T11:06:52;5.60;99.90
20418;DHT22;10368;51.436;6.774;2024-01-27T11:09:21;5.70;99.90
20418;DHT22;10368;51.436;6.774;2024-01-27T11:11:48;5.80;99.90
20418;DHT22;10368;51.436;6.774;2024-01-27T11:14:16;6.10;99.90
20418;DHT22;10368;51.436;6.774;2024-01-27T11:16:43;6.30;99.90
20418;DHT22;10368;51.436;6.774;2024-01-27T11:19:12;6.50;99.90
20418;DHT22;10368;51.436;6.774;2024-01-27T11:21:39;6.50;99.90
20418;DHT22;10368;51.436;6.774;2024-01-27T11:24:16;6.80;99.90
20418;DHT22;10368;51.436;6.774;2024-01-27T11:26:44;6.90;99.90
20418;DHT22;10368;51.436;6.774;2024-01-27T11:29:11;7.00;99.90
20418;DHT22;10368;51.436;6.774;2024-01-27T11:31:48;7.30;99.90
20418;DHT22;10368;51.436;6.774;2024-01-27T11:34:17;7.40;99.90
20418;DHT22;10368;51.436;6.774;2024-01-27T11:36:47;7.40;99.90
20418;DHT22;10368;51.436;6.774;2024-01-27T11:39:28;7.70;99.90
20418;DHT22;10368;51.436;6.774;2024-01-27T11:42:10;8.00;99.90
20418;DHT22;10368;51.436;6.774;2024-01-27T11:44:40;7.80;99.90
20418;DHT22;10368;51.436;6.774;2024-01-27T11:47:34;8.20;99.90
20418;DHT22;10368;51.436;6.774;2024-01-27T11:50:01;8.40;99.90
20418;DHT22;10368;51.436;6.774;2024-01-27T11:52:29;8.10;99.90
20418;DHT22;10368;51.436;6.774;2024-01-27T11:54:57;8.10;99.90
20418;DHT22;10368;51.436;6.774;2024-01-27T11:57:24;8.50;99.90
20418;DHT22;10368;51.436;6.774;2024-01-27T11:59:52;8.80;99.90
20418;DHT22;10368;51.436;6.774;2024-01-27T12:02:20;8.40;99.90
20418;DHT22;10368;51.436;6.774;2024-01-27T12:04:47;8.40;99.90
20418;DHT22;10368;51.436;6.774;2024-01-27T12:07:15;8.60;99.90
20418;DHT22;10368;51.436;6.774;2024-01-27T12:09:42;8.50;99.90
20418;DHT22;10368;51.436;6.774;2024-01-27T12:12:09;8.90;99.90
20418;DHT22;10368;51.436;6.774;2024-01-27T12:17:08;8.80;99.90
20418;DHT22;10368;51.436;6.774;2024-01-27T12:19:46;9.00;99.90
20418;DHT22;10368;51.436;6.774;2024-01-27T12:22:23;9.40;99.90
20418;DHT22;10368;51.436;6.774;2024-01-27T12:24:50;9.40;99.90
20418;DHT22;10368;51.436;6.774;2024-01-27T12:27:17;9.50;99.90
20418;DHT22;10368;51.436;6.774;2024-01-27T12:29:47;9.40;99.90
20418;DHT22;10368;51.436;6.774;2024-01-27T12:32:14;10.00;99.90
20418;DHT22;10368;51.436;6.774;2024-01-27T12:34:42;9.90;99.90
20418;DHT22;10368;51.436;6.774;2024-01-27T12:37:11;9.60;99.90
20418;DHT22;10368;51.436;6.774;2024-01-27T12:39:42;9.80;99.90
20418;DHT22;10368;51.436;6.774;2024-01-27T12:42:09;10.40;99.90
20418;DHT22;10368;51.436;6.774;2024-01-27T12:44:36;10.40;99.90
20418;DHT22;10368;51.436;6.774;2024-01-27T12:47:03;10.40;99.90
20418;DHT22;10368;51.436;6.774;2024-01-27T12:49:30;10.20;99.90
20418;DHT22;10368;51.436;6.774;2024-01-27T12:51:57;10.10;99.90
20418;DHT22;10368;51.436;6.774;2024-01-27T12:54:24;10.80;99.90
20418;DHT22;10368;51.436;6.774;2024-01-27T12:56:51;11.10;99.90
20418;DHT22;10368;51.436;6.774;2024-01-27T12:59:18;11.10;99.90
20418;DHT22;10368;51.436;6.774;2024-01-27T13:01:45;10.70;99.90
20418;DHT22;10368;51.436;6.774;2024-01-27T13:04:13;10.50;99.90
20418;DHT22;10368;51.436;6.774;2024-01-27T13:06:41;10.50;99.90
20418;DHT22;10368;51.436;6.774;2024-01-27T13:09:09;10.90;99.90
20418;DHT22;10368;51.436;6.774;2024-01-27T13:11:39;10.80;99.90
20418;DHT22;10368;51.436;6.774;2024-01-27T13:14:06;10.60;99.90
20418;DHT22;10368;51.436;6.774;2024-01-27T13:16:33;10.80;99.90
20418;DHT22;10368;51.436;6.774;2024-01-27T13:19:00;11.50;99.90
20418;DHT22;10368;51.436;6.774;2024-01-27T13:21:27;11.30;99.90
20418;DHT22;10368;51.436;6.774;2024-01-27T13:23:54;11.30;99.90
20418;DHT22;10368;51.436;6.774;2024-01-27T13:26:21;11.10;99.90
20418;DHT22;10368;51.436;6.774;2024-01-27T13:28:51;11.50;99.90
20418;DHT22;10368;51.436;6.774;2024-01-27T13:31:18;11.60;99.90
20418;DHT22;10368;51.436;6.774;2024-01-27T13:33:45;10.70;99.90
20418;DHT22;10368;51.436;6.774;2024-01-27T13:36:12;11.00;99.90
20418;DHT22;10368;51.436;6.774;2024-01-27T13:38:39;11.00;99.90
20418;DHT22;10368;51.436;6.774;2024-01-27T13:41:06;10.50;99.90
20418;DHT22;10368;51.436;6.774;2024-01-27T13:43:33;10.80;99.90
20418;DHT22;10368;51.436;6.774;2024-01-27T13:46:00;11.30;99.90
20418;DHT22;10368;51.436;6.774;2024-01-27T13:48:27;11.20;99.90
20418;DHT22;10368;51.436;6.774;2024-01-27T13:50:54;11.00;99.90
20418;DHT22;10368;51.436;6.774;2024-01-27T13:53:21;11.30;99.90
20418;DHT22;10368;51.436;6.774;2024-01-27T13:56:01;11.20;99.30
20418;DHT22;10368;51.436;6.774;2024-01-27T13:58:28;10.90;99.90
20418;DHT22;10368;51.436;6.774;2024-01-27T14:00:55;11.10;99.20
20418;DHT22;10368;51.436;6.774;2024-01-27T14:03:22;10.50;99.90
20418;DHT22;10368;51.436;6.774;2024-01-27T14:05:50;10.90;99.50
20418;DHT22;10368;51.436;6.774;2024-01-27T14:08:17;10.50;99.90
20418;DHT22;10368;51.436;6.774;2024-01-27T14:10:46;10.50;99.70
20418;DHT22;10368;51.436;6.774;2024-01-27T14:15:42;9.80;99.90
20418;DHT22;10368;51.436;6.774;2024-01-27T14:18:09;9.80;99.90
20418;DHT22;10368;51.436;6.774;2024-01-27T14:20:40;9.90;99.90
20418;DHT22;10368;51.436;6.774;2024-01-27T14:23:07;9.90;99.90
20418;DHT22;10368;51.436;6.774;2024-01-27T14:25:34;10.10;99.90
20418;DHT22;10368;51.436;6.774;2024-01-27T14:28:01;9.60;99.90
20418;DHT22;10368;51.436;6.774;2024-01-27T14:30:28;9.80;99.90
20418;DHT22;10368;51.436;6.774;2024-01-27T14:32:55;9.50;99.90
20418;DHT22;10368;51.436;6.774;2024-01-27T14:35:22;9.30;99.90
20418;DHT22;10368;51.436;6.774;2024-01-27T14:37:49;9.10;99.90
20418;DHT22;10368;51.436;6.774;2024-01-27T14:40:16;9.20;99.90
20418;DHT22;10368;51.436;6.774;2024-01-27T14:42:45;9.40;99.90
20418;DHT22;10368;51.436;6.774;2024-01-27T14:45:13;9.30;99.90
20418;DHT22;10368;51.436;6.774;2024-01-27T14:47:40;9.30;99.90
20418;DHT22;10368;51.436;6.774;2024-01-27T14:50:07;9.20;99.90
20418;DHT22;10368;51.436;6.774;2024-01-27T14:52:34;9.00;99.90
20418;DHT22;10368;51.436;6.774;2024-01-27T14:55:01;8.90;99.90
20418;DHT22;10368;51.436;6.774;2024-01-27T14:57:28;8.90;99.90
20418;DHT22;10368;51.436;6.774;2024-01-27T14:59:55;8.90;99.90
20418;DHT22;10368;51.436;6.774;2024-01-27T15:02:22;8.80;99.90
20418;DHT22;10368;51.436;6.774;2024-01-27T15:04:53;8.80;99.90
20418;DHT22;10368;51.436;6.774;2024-01-27T15:07:21;8.70;99.90
20418;DHT22;10368;51.436;6.774;2024-01-27T15:09:47;8.70;99.90
20418;DHT22;10368;51.436;6.774;2024-01-27T15:12:15;8.60;99.90
20418;DHT22;10368;51.436;6.774;2024-01-27T15:14:43;8.60;99.90
20418;DHT22;10368;51.436;6.774;2024-01-27T15:17:10;8.60;99.90
20418;DHT22;10368;51.436;6.774;2024-01-27T15:19:37;8.60;99.90
20418;DHT22;10368;51.436;6.774;2024-01-27T15:22:07;8.60;99.90
20418;DHT22;10368;51.436;6.774;2024-01-27T15:24:35;8.60;99.90
20418;DHT22;10368;51.436;6.774;2024-01-27T15:27:04;8.50;99.90
20418;DHT22;10368;51.436;6.774;2024-01-27T15:29:37;8.50;99.90
20418;DHT22;10368;51.436;6.774;2024-01-27T15:32:05;8.50;99.90
20418;DHT22;10368;51.436;6.774;2024-01-27T15:34:32;8.40;99.90
20418;DHT22;10368;51.436;6.774;2024-01-27T15:36:59;8.30;99.90
20418;DHT22;10368;51.436;6.774;2024-01-27T15:39:27;8.30;99.90
20418;DHT22;10368;51.436;6.774;2024-01-27T15:41:54;8.20;99.90
20418;DHT22;10368;51.436;6.774;2024-01-27T15:44:21;8.20;99.90
20418;DHT22;10368;51.436;6.774;2024-01-27T15:46:49;8.10;99.90
20418;DHT22;10368;51.436;6.774;2024-01-27T15:49:16;8.00;99.90
20418;DHT22;10368;51.436;6.774;2024-01-27T15:51:46;8.00;99.90
20418;DHT22;10368;51.436;6.774;2024-01-27T15:54:13;7.90;99.90